Time;durP1;ratioP1;P1;durP2;ratioP2;P2;SDS_P1;SDS_P2;PMS_P1;PMS_P2;Temp;Humidity;BMP_temperature;BMP_pressure;BME280_temperature;BME280_humidity;BME280_pressure;Samples;Min_cycle;Max_cycle;Signal;HPM_P1;HPM_P2
2023/07/11 00:00:53;;;;;;;12.57;2.80;;;15.60;90.30;;;;;;5051608;28;20037;-80
2023/07/11 00:03:21;;;;;;;12.18;2.92;;;15.60;90.40;;;;;;5068332;28;20041;-80
2023/07/11 00:06:04;;;;;;;10.27;3.10;;;15.60;90.40;;;;;;5068634;28;20055;-80
2023/07/11 00:08:32;;;;;;;5.75;2.90;;;15.50;90.30;;;;;;5048402;28;20064;-80
2023/07/11 00:10:59;;;;;;;12.32;2.83;;;15.50;90.60;;;;;;5066850;28;20101;-80
2023/07/11 00:13:26;;;;;;;7.25;2.75;;;15.50;90.80;;;;;;5067620;28;20052;-80
2023/07/11 00:16:05;;;;;;;5.63;2.47;;;15.50;91.10;;;;;;5067226;28;20044;-80
2023/07/11 00:18:33;;;;;;;6.93;2.83;;;15.50;90.50;;;;;;5063208;28;20044;-79
2023/07/11 00:21:00;;;;;;;5.05;2.67;;;15.50;90.40;;;;;;5080874;28;20174;-80
2023/07/11 00:23:27;;;;;;;10.30;2.85;;;15.40;90.00;;;;;;5066645;28;20075;-80
2023/07/11 00:25:54;;;;;;;9.00;2.78;;;15.40;90.50;;;;;;5067100;28;20083;-80
2023/07/11 00:28:21;;;;;;;6.63;2.63;;;15.40;90.00;;;;;;5067174;28;21639;-80
2023/07/11 00:30:51;;;;;;;6.88;2.55;;;15.30;90.10;;;;;;5067598;28;20079;-80
2023/07/11 00:33:18;;;;;;;6.30;2.63;;;15.30;90.30;;;;;;5067754;28;20064;-80
2023/07/11 00:35:52;;;;;;;11.57;3.30;;;15.30;89.60;;;;;;5050534;28;20044;-80
2023/07/11 00:38:20;;;;;;;8.98;2.97;;;15.30;90.10;;;;;;5080686;28;20052;-80
2023/07/11 00:40:49;;;;;;;6.63;2.40;;;15.20;90.70;;;;;;5060336;28;20094;-80
2023/07/11 00:43:19;;;;;;;9.57;2.70;;;15.20;90.60;;;;;;5063860;28;20047;-79
2023/07/11 00:46:04;;;;;;;7.85;2.28;;;15.10;90.40;;;;;;5066931;28;20488;-80
2023/07/11 00:48:35;;;;;;;5.53;2.28;;;15.10;90.20;;;;;;5064242;28;20060;-80
2023/07/11 00:51:04;;;;;;;4.20;2.30;;;15.00;90.40;;;;;;5071503;28;20131;-81
2023/07/11 00:53:31;;;;;;;8.73;2.60;;;15.00;90.40;;;;;;5066895;28;20044;-81
2023/07/11 00:56:02;;;;;;;4.93;2.33;;;15.00;90.60;;;;;;5068886;28;20137;-80
2023/07/11 00:58:31;;;;;;;7.32;3.00;;;14.90;90.40;;;;;;5052939;28;20083;-81
2023/07/11 01:01:00;;;;;;;3.50;2.25;;;14.90;90.90;;;;;;5071563;28;20139;-80
2023/07/11 01:03:27;;;;;;;5.22;2.13;;;14.80;90.70;;;;;;5071378;28;20541;-81
2023/07/11 01:05:56;;;;;;;3.15;2.08;;;14.80;90.80;;;;;;5053721;28;20670;-80
2023/07/11 01:08:23;;;;;;;3.25;1.83;;;14.70;90.60;;;;;;5048300;28;20121;-80
2023/07/11 01:10:51;;;;;;;1.75;1.50;;;14.70;90.50;;;;;;5072048;28;20052;-81
2023/07/11 01:13:17;;;;;;;5.85;2.20;;;14.60;89.70;;;;;;5065371;28;20668;-81
2023/07/11 01:15:44;;;;;;;7.13;2.03;;;14.60;90.20;;;;;;5086732;28;20799;-80
2023/07/11 01:18:11;;;;;;;3.85;2.28;;;14.50;90.70;;;;;;5064237;28;20083;-80
2023/07/11 01:20:38;;;;;;;4.70;2.50;;;14.50;90.90;;;;;;5069334;28;20615;-80
2023/07/11 01:23:05;;;;;;;4.75;2.75;;;14.50;91.70;;;;;;5071338;28;20128;-81
2023/07/11 01:25:45;;;;;;;13.27;2.90;;;14.50;92.10;;;;;;5070304;28;20140;-80
2023/07/11 01:28:12;;;;;;;4.40;2.15;;;14.50;92.10;;;;;;5070693;28;20094;-80
2023/07/11 01:30:40;;;;;;;7.15;2.30;;;14.50;92.40;;;;;;5083852;28;20131;-80
2023/07/11 01:33:07;;;;;;;6.85;2.55;;;14.50;92.10;;;;;;5069617;28;20067;-80
2023/07/11 01:35:34;;;;;;;2.83;2.20;;;14.50;92.00;;;;;;5070655;28;20076;-80
2023/07/11 01:38:01;;;;;;;4.32;2.33;;;14.50;92.30;;;;;;5053607;28;20058;-81
2023/07/11 01:40:27;;;;;;;6.72;3.03;;;14.50;92.60;;;;;;5052815;28;20032;-80
2023/07/11 01:42:54;;;;;;;7.63;3.05;;;14.50;92.80;;;;;;5056601;28;20105;-80
2023/07/11 01:45:21;;;;;;;6.65;2.40;;;14.50;92.60;;;;;;5051361;28;20072;-80
2023/07/11 01:47:48;;;;;;;7.78;2.00;;;14.40;91.90;;;;;;5071586;28;20080;-80
2023/07/11 01:50:15;;;;;;;3.53;2.03;;;14.40;91.20;;;;;;5052888;28;20139;-80
2023/07/11 01:52:48;;;;;;;2.58;1.80;;;14.30;91.00;;;;;;5071401;28;20114;-80
2023/07/11 01:55:15;;;;;;;3.58;1.92;;;14.30;91.20;;;;;;5052796;28;20529;-79
2023/07/11 01:57:42;;;;;;;6.38;2.20;;;14.20;90.80;;;;;;5067131;28;20080;-79
2023/07/11 02:00:10;;;;;;;3.25;2.00;;;14.20;90.40;;;;;;5067992;28;20121;-79
2023/07/11 02:02:36;;;;;;;4.93;2.33;;;14.20;90.60;;;;;;5051877;28;20140;-79
2023/07/11 02:05:04;;;;;;;7.93;2.40;;;14.10;91.20;;;;;;5067282;28;20091;-79
2023/07/11 02:07:31;;;;;;;5.90;2.60;;;14.10;91.30;;;;;;5050471;28;20106;-79
2023/07/11 02:09:58;;;;;;;4.18;1.92;;;14.10;91.40;;;;;;5065108;28;20077;-80
2023/07/11 02:12:24;;;;;;;4.63;2.17;;;14.10;91.70;;;;;;5070375;28;20837;-80
2023/07/11 02:14:51;;;;;;;8.02;2.22;;;14.00;91.40;;;;;;5050887;28;20101;-80
2023/07/11 02:17:18;;;;;;;9.48;2.20;;;14.00;91.70;;;;;;5070565;28;20041;-80
2023/07/11 02:19:46;;;;;;;2.35;1.83;;;14.00;91.10;;;;;;5054579;28;20125;-80
2023/07/11 02:22:13;;;;;;;5.20;2.40;;;14.00;91.20;;;;;;5068348;28;20708;-80
2023/07/11 02:24:40;;;;;;;6.72;3.17;;;14.00;92.20;;;;;;5061845;28;20160;-80
2023/07/11 02:27:08;;;;;;;4.47;2.80;;;14.00;92.40;;;;;;5066867;28;20346;-80
2023/07/11 02:29:35;;;;;;;13.57;2.88;;;14.00;93.00;;;;;;5067831;28;20064;-80
2023/07/11 02:32:02;;;;;;;10.95;3.00;;;14.00;92.80;;;;;;5051965;28;20071;-79
2023/07/11 02:34:29;;;;;;;6.15;2.85;;;14.00;92.90;;;;;;5066213;28;20406;-80
2023/07/11 02:36:56;;;;;;;9.05;2.92;;;14.00;92.60;;;;;;5064292;28;20127;-80
2023/07/11 02:39:23;;;;;;;8.63;2.75;;;14.00;93.20;;;;;;5066653;28;20886;-80
2023/07/11 02:41:49;;;;;;;4.40;2.50;;;14.00;92.50;;;;;;5051785;28;20127;-80
2023/07/11 02:44:16;;;;;;;2.80;1.83;;;13.90;92.50;;;;;;5050926;28;20102;-80
2023/07/11 02:46:43;;;;;;;3.35;2.40;;;13.90;91.60;;;;;;5069290;28;20528;-80
2023/07/11 02:49:12;;;;;;;4.18;2.28;;;13.80;91.20;;;;;;5068409;28;20514;-81
2023/07/11 02:51:39;;;;;;;6.35;2.28;;;13.80;91.80;;;;;;5069648;28;20076;-80
2023/07/11 02:54:06;;;;;;;3.58;2.30;;;13.80;92.30;;;;;;5068724;28;20141;-80
2023/07/11 02:56:34;;;;;;;5.82;2.72;;;13.80;92.40;;;;;;5050674;28;20048;-80
2023/07/11 02:59:04;;;;;;;6.45;2.88;;;13.80;92.60;;;;;;5067047;28;20080;-80
2023/07/11 03:01:32;;;;;;;12.23;3.33;;;13.70;92.50;;;;;;5045860;28;20479;-81
2023/07/11 03:03:59;;;;;;;7.30;3.25;;;13.70;93.00;;;;;;5051485;28;20063;-80
2023/07/11 03:06:26;;;;;;;9.20;2.95;;;13.80;93.30;;;;;;5051262;28;20048;-80
2023/07/11 03:08:53;;;;;;;7.47;3.40;;;13.80;93.40;;;;;;5051099;28;20053;-80
2023/07/11 03:11:20;;;;;;;6.63;2.80;;;13.80;93.40;;;;;;5081572;28;20044;-80
2023/07/11 03:13:47;;;;;;;5.30;2.90;;;13.80;93.10;;;;;;5044577;28;20102;-82
2023/07/11 03:16:14;;;;;;;6.15;2.83;;;13.70;92.80;;;;;;5050652;28;20048;-79
2023/07/11 03:18:41;;;;;;;6.30;2.70;;;13.70;92.60;;;;;;5049504;28;20068;-79
2023/07/11 03:21:07;;;;;;;8.02;2.38;;;13.70;91.30;;;;;;5067309;28;20049;-80
2023/07/11 03:23:34;;;;;;;7.63;2.45;;;13.60;91.20;;;;;;5047459;28;20123;-79
2023/07/11 03:26:01;;;;;;;6.25;2.67;;;13.60;90.90;;;;;;5049687;28;20118;-80
2023/07/11 03:28:28;;;;;;;4.90;2.95;;;13.60;91.20;;;;;;5067979;28;20397;-80
2023/07/11 03:30:55;;;;;;;3.85;2.22;;;13.60;91.00;;;;;;5068717;28;20094;-80
2023/07/11 03:33:22;;;;;;;6.03;2.70;;;13.60;91.10;;;;;;5049880;28;20064;-80
2023/07/11 03:35:51;;;;;;;4.25;2.40;;;13.60;90.60;;;;;;5063749;28;20385;-80
2023/07/11 03:38:19;;;;;;;6.60;2.25;;;13.50;90.90;;;;;;5050291;28;20048;-80
2023/07/11 03:40:46;;;;;;;5.90;1.98;;;13.50;90.40;;;;;;5051644;28;20087;-80
2023/07/11 03:43:13;;;;;;;4.00;2.40;;;13.50;90.00;;;;;;5068654;28;20127;-81
2023/07/11 03:45:44;;;;;;;3.78;1.85;;;13.50;90.60;;;;;;5051004;28;20435;-80
2023/07/11 03:48:13;;;;;;;4.25;2.30;;;13.50;90.50;;;;;;5051344;28;20071;-80
2023/07/11 03:50:41;;;;;;;3.00;2.00;;;13.40;89.50;;;;;;5069594;28;20519;-81
2023/07/11 03:53:08;;;;;;;5.80;2.30;;;13.40;89.90;;;;;;5050321;28;20079;-81
2023/07/11 03:55:35;;;;;;;6.28;2.95;;;13.40;89.80;;;;;;5067827;28;20056;-81
2023/07/11 03:58:02;;;;;;;8.07;2.38;;;13.40;90.80;;;;;;5066523;28;20451;-81
2023/07/11 04:00:29;;;;;;;6.35;2.78;;;13.50;90.80;;;;;;5066892;28;20384;-81
2023/07/11 04:02:56;;;;;;;5.25;2.53;;;13.50;91.20;;;;;;5083922;28;20075;-82
2023/07/11 04:05:23;;;;;;;7.35;2.95;;;13.50;91.00;;;;;;5068650;28;20132;-81
2023/07/11 04:07:50;;;;;;;3.60;2.53;;;13.60;90.40;;;;;;5050994;28;20788;-82
2023/07/11 04:10:17;;;;;;;4.05;2.40;;;13.60;90.90;;;;;;5068455;28;20747;-82
2023/07/11 04:12:44;;;;;;;7.07;3.05;;;13.60;91.00;;;;;;5047637;28;20107;-82
2023/07/11 04:15:12;;;;;;;5.78;3.03;;;13.60;91.90;;;;;;5071421;28;20053;-81
2023/07/11 04:17:40;;;;;;;6.72;2.90;;;13.70;92.30;;;;;;5051002;28;20068;-81
2023/07/11 04:20:09;;;;;;;13.05;3.28;;;13.70;92.00;;;;;;5050442;28;20147;-81
2023/07/11 04:22:37;;;;;;;14.02;3.08;;;13.70;92.20;;;;;;5049088;28;20456;-82
2023/07/11 04:25:05;;;;;;;6.70;3.10;;;13.80;92.60;;;;;;5050446;28;20049;-82
2023/07/11 04:27:32;;;;;;;9.90;3.42;;;13.80;93.00;;;;;;5073092;28;20088;-81
2023/07/11 04:29:58;;;;;;;7.95;3.20;;;13.90;92.90;;;;;;5069987;28;20485;-82
2023/07/11 04:32:35;;;;;;;6.45;3.05;;;13.90;92.70;;;;;;5055123;28;20147;-80
2023/07/11 04:35:04;;;;;;;7.68;3.50;;;14.00;93.10;;;;;;5044978;28;20767;-79
2023/07/11 04:37:30;;;;;;;10.02;3.58;;;14.00;93.30;;;;;;5086133;28;20109;-80
2023/07/11 04:39:57;;;;;;;7.28;3.13;;;14.10;93.70;;;;;;5071631;28;20029;-78
2023/07/11 04:42:24;;;;;;;13.32;4.38;;;14.10;93.90;;;;;;5058247;28;20119;-78
2023/07/11 04:44:51;;;;;;;8.05;3.70;;;14.20;94.10;;;;;;5052831;28;20183;-83
2023/07/11 04:47:18;;;;;;;10.50;3.97;;;14.20;94.30;;;;;;5049408;28;20075;-81
2023/07/11 04:49:45;;;;;;;10.15;3.70;;;14.30;94.30;;;;;;5050286;28;20115;-83
2023/07/11 04:52:12;;;;;;;7.43;3.70;;;14.30;94.50;;;;;;5053278;28;20053;-78
2023/07/11 04:54:39;;;;;;;9.45;4.40;;;14.40;94.30;;;;;;5072089;28;20151;-85
2023/07/11 04:57:06;;;;;;;6.05;3.80;;;14.50;94.50;;;;;;5066882;28;20118;-87
2023/07/11 04:59:32;;;;;;;13.52;4.20;;;14.50;94.20;;;;;;5048879;28;20138;-83
2023/07/11 05:01:59;;;;;;;7.38;3.72;;;14.60;94.00;;;;;;5067684;28;20072;-84
2023/07/11 05:04:26;;;;;;;11.00;3.88;;;14.70;94.20;;;;;;5054722;28;20123;-83
2023/07/11 05:06:53;;;;;;;11.90;3.63;;;14.70;94.30;;;;;;5071213;28;20052;-82
2023/07/11 05:09:20;;;;;;;14.85;4.05;;;14.80;94.20;;;;;;5054687;28;20484;-84
2023/07/11 05:11:47;;;;;;;12.25;3.65;;;14.90;94.30;;;;;;5055264;28;20472;-86
2023/07/11 05:14:14;;;;;;;9.52;3.83;;;14.90;93.80;;;;;;5070778;28;20083;-84
2023/07/11 05:16:41;;;;;;;10.38;3.72;;;15.00;93.90;;;;;;5074532;28;20052;-86
2023/07/11 05:19:08;;;;;;;9.07;3.65;;;15.10;93.90;;;;;;5072457;28;20049;-88
2023/07/11 05:21:35;;;;;;;7.70;3.85;;;15.20;93.90;;;;;;5052490;28;20045;-84
2023/07/11 05:24:02;;;;;;;13.50;4.47;;;15.30;94.00;;;;;;5051471;28;20044;-87
2023/07/11 05:26:29;;;;;;;7.35;3.85;;;15.30;93.70;;;;;;5053981;28;20072;-84
2023/07/11 05:28:56;;;;;;;11.25;3.80;;;15.40;93.70;;;;;;5071472;28;20088;-82
2023/07/11 05:31:24;;;;;;;23.23;6.20;;;15.50;93.70;;;;;;5068603;28;20135;-83
2023/07/11 05:33:53;;;;;;;11.63;3.95;;;15.60;93.80;;;;;;5050814;28;20135;-83
2023/07/11 05:36:33;;;;;;;6.00;4.03;;;15.70;94.40;;;;;;5046257;28;20048;-83
2023/07/11 05:39:02;;;;;;;11.70;3.90;;;15.70;94.80;;;;;;5070565;28;20114;-83
2023/07/11 05:41:34;;;;;;;10.32;4.00;;;15.80;95.00;;;;;;5056660;28;20044;-84
2023/07/11 05:44:02;;;;;;;12.77;4.18;;;15.80;94.80;;;;;;5074542;28;20119;-83
2023/07/11 05:46:29;;;;;;;12.15;4.80;;;15.90;94.60;;;;;;5051882;28;20055;-83
2023/07/11 05:48:57;;;;;;;10.45;3.80;;;16.00;94.60;;;;;;5049525;28;20052;-84
2023/07/11 05:51:24;;;;;;;10.25;3.70;;;16.00;93.50;;;;;;5053355;28;20056;-84
2023/07/11 05:53:52;;;;;;;12.27;4.45;;;16.10;92.60;;;;;;5053833;28;20053;-84
2023/07/11 05:56:19;;;;;;;10.13;3.25;;;16.20;91.60;;;;;;5053273;28;20056;-84
2023/07/11 05:58:47;;;;;;;8.20;3.17;;;16.40;90.90;;;;;;5054000;28;20079;-84
2023/07/11 06:01:17;;;;;;;7.57;2.92;;;16.50;91.00;;;;;;5086548;28;20480;-84
2023/07/11 06:03:46;;;;;;;6.35;3.22;;;16.60;90.60;;;;;;5052448;28;20055;-83
2023/07/11 06:06:18;;;;;;;5.93;2.92;;;16.80;91.40;;;;;;5053188;28;20431;-83
2023/07/11 06:08:45;;;;;;;8.02;3.25;;;16.90;89.20;;;;;;5046188;28;20056;-83
2023/07/11 06:11:12;;;;;;;9.38;2.45;;;17.10;89.80;;;;;;5070314;28;20072;-83
2023/07/11 06:13:40;;;;;;;11.15;2.85;;;17.30;89.50;;;;;;5052173;28;20049;-83
2023/07/11 06:16:15;;;;;;;8.63;2.95;;;17.50;89.50;;;;;;5070718;28;20049;-83
2023/07/11 06:18:42;;;;;;;7.68;3.08;;;17.70;87.70;;;;;;5048034;28;20052;-84
2023/07/11 06:21:11;;;;;;;11.82;2.70;;;18.00;87.70;;;;;;5052356;28;20389;-84
2023/07/11 06:23:38;;;;;;;4.78;2.15;;;18.30;86.40;;;;;;5084767;28;20139;-83
2023/07/11 06:26:05;;;;;;;5.40;2.47;;;18.60;83.60;;;;;;5043562;28;20450;-83
2023/07/11 06:28:33;;;;;;;8.05;2.63;;;18.80;82.10;;;;;;5067452;28;20057;-83
2023/07/11 06:31:04;;;;;;;13.48;3.20;;;19.10;81.90;;;;;;5080580;28;20068;-83
2023/07/11 06:33:34;;;;;;;13.35;3.35;;;19.50;81.60;;;;;;5063852;28;20059;-83
2023/07/11 06:36:03;;;;;;;8.50;3.25;;;19.80;81.40;;;;;;5065086;28;20071;-84
2023/07/11 06:41:39;;;;;;;22.20;2.85;;;20.40;79.20;;;;;;5042112;28;20049;-83
2023/07/11 06:44:08;;;;;;;7.20;3.33;;;20.70;75.90;;;;;;5034226;28;20053;-83
2023/07/11 06:46:36;;;;;;;10.23;3.45;;;20.90;76.80;;;;;;5031737;28;20414;-83
2023/07/11 06:49:03;;;;;;;6.57;3.28;;;21.20;74.90;;;;;;5032310;28;20163;-83
2023/07/11 06:51:30;;;;;;;8.23;3.72;;;21.60;75.30;;;;;;5050216;28;20056;-84
2023/07/11 06:53:57;;;;;;;8.40;3.22;;;21.80;73.20;;;;;;5042078;28;20806;-83
2023/07/11 06:56:25;;;;;;;8.65;2.97;;;22.10;71.90;;;;;;5038002;28;20110;-83
2023/07/11 06:58:53;;;;;;;10.30;2.70;;;22.30;69.80;;;;;;5031612;28;20111;-83
2023/07/11 07:01:22;;;;;;;5.07;2.25;;;22.60;68.20;;;;;;5030733;28;20836;-83
2023/07/11 07:04:03;;;;;;;6.40;2.42;;;22.70;65.00;;;;;;5033829;28;20063;-83
2023/07/11 07:06:32;;;;;;;9.07;2.58;;;23.00;67.70;;;;;;5045076;28;20045;-83
2023/07/11 07:09:00;;;;;;;8.93;2.47;;;23.30;64.50;;;;;;5032060;28;20119;-83
2023/07/11 07:11:27;;;;;;;8.85;2.70;;;23.50;65.60;;;;;;5043972;28;20076;-83
2023/07/11 07:13:54;;;;;;;7.45;2.38;;;23.70;64.70;;;;;;5031432;28;20405;-83
2023/07/11 07:16:33;;;;;;;9.52;2.15;;;23.90;61.50;;;;;;5042172;28;20497;-83
2023/07/11 07:19:01;;;;;;;7.57;2.08;;;24.10;62.10;;;;;;5029543;28;20604;-83
2023/07/11 07:21:29;;;;;;;10.73;2.17;;;24.20;59.80;;;;;;5031693;28;20044;-83
2023/07/11 07:23:56;;;;;;;8.07;2.08;;;24.50;62.60;;;;;;5026491;28;20448;-83
2023/07/11 07:26:24;;;;;;;8.52;2.03;;;24.70;58.60;;;;;;5060622;28;20644;-83
2023/07/11 07:28:51;;;;;;;6.55;2.10;;;24.80;59.00;;;;;;5034210;28;20225;-83
2023/07/11 07:31:17;;;;;;;6.88;1.60;;;25.00;57.60;;;;;;5031887;28;20163;-83
2023/07/11 07:33:44;;;;;;;7.65;1.88;;;25.10;57.30;;;;;;5047071;28;20045;-83
2023/07/11 07:36:12;;;;;;;7.88;1.88;;;25.30;59.00;;;;;;5052496;28;20132;-85
2023/07/11 07:38:39;;;;;;;89.00;8.25;;;25.60;59.20;;;;;;5030238;28;20049;-81
2023/07/11 07:41:09;;;;;;;5.97;2.15;;;25.70;57.40;;;;;;5028242;28;20047;-86
2023/07/11 07:43:39;;;;;;;5.88;2.25;;;26.00;57.20;;;;;;5031347;28;20131;-83
2023/07/11 07:46:07;;;;;;;7.78;1.85;;;26.20;55.30;;;;;;5048272;28;20048;-82
2023/07/11 07:48:34;;;;;;;7.75;2.13;;;26.30;55.50;;;;;;5030792;28;20440;-82
2023/07/11 07:51:12;;;;;;;7.93;1.70;;;26.50;55.80;;;;;;5044333;28;20127;-82
2023/07/11 07:53:39;;;;;;;8.55;1.88;;;26.50;54.70;;;;;;5048367;28;20092;-85
2023/07/11 07:56:11;;;;;;;8.30;2.22;;;26.60;53.60;;;;;;5027574;28;20175;-83
2023/07/11 07:58:38;;;;;;;6.57;2.10;;;26.60;52.70;;;;;;5041129;28;20595;-84
2023/07/11 08:01:12;;;;;;;4.35;1.73;;;26.70;53.50;;;;;;5034132;28;20148;-84
2023/07/11 08:03:40;;;;;;;6.15;1.90;;;26.80;53.30;;;;;;5035822;28;20045;-84
2023/07/11 08:06:09;;;;;;;5.07;1.85;;;26.90;51.50;;;;;;5053985;28;20045;-85
2023/07/11 08:08:39;;;;;;;9.80;2.42;;;26.90;53.20;;;;;;5040222;28;20142;-83
2023/07/11 08:11:07;;;;;;;10.35;2.30;;;27.00;51.70;;;;;;5053830;28;20557;-83
2023/07/11 08:13:35;;;;;;;2.97;1.70;;;27.10;53.30;;;;;;5052496;28;20142;-83
2023/07/11 08:16:22;;;;;;;5.82;2.00;;;27.20;52.00;;;;;;5053149;28;20053;-83
2023/07/11 08:18:58;;;;;;;5.00;1.48;;;27.30;50.70;;;;;;5056393;28;20060;-83
2023/07/11 08:21:25;;;;;;;7.07;1.40;;;27.50;50.40;;;;;;5048804;28;20124;-84
2023/07/11 08:23:52;;;;;;;5.15;1.88;;;27.70;51.20;;;;;;5054861;28;20045;-82
2023/07/11 08:26:22;;;;;;;5.13;1.45;;;27.80;48.80;;;;;;5034391;28;20808;-82
2023/07/11 08:28:50;;;;;;;4.68;1.85;;;28.00;50.10;;;;;;5039831;28;20183;-82
2023/07/11 08:31:17;;;;;;;8.20;1.65;;;28.20;49.30;;;;;;5034508;28;20579;-82
2023/07/11 08:33:45;;;;;;;7.30;2.05;;;28.30;49.90;;;;;;5051863;28;20053;-82
2023/07/11 08:36:12;;;;;;;4.78;1.30;;;28.30;48.80;;;;;;5051880;28;20053;-82
2023/07/11 08:38:39;;;;;;;3.72;1.50;;;28.30;46.60;;;;;;5043256;28;20137;-82
2023/07/11 08:41:38;;;;;;;3.70;1.30;;;28.30;47.40;;;;;;5033955;28;20131;-82
2023/07/11 08:44:13;;;;;;;3.70;1.42;;;28.20;46.60;;;;;;5050912;28;20469;-82
2023/07/11 08:46:51;;;;;;;5.57;1.55;;;28.20;47.00;;;;;;5066773;28;20486;-82
2023/07/11 08:49:29;;;;;;;8.43;1.70;;;28.00;47.50;;;;;;5051421;28;20127;-82
2023/07/11 08:51:58;;;;;;;6.00;1.45;;;27.70;48.50;;;;;;5031046;28;20634;-82
2023/07/11 08:54:57;;;;;;;5.55;1.38;;;27.60;48.00;;;;;;5043901;28;20636;-83
2023/07/11 08:57:25;;;;;;;7.95;1.67;;;27.60;49.20;;;;;;5002960;28;20053;-81
2023/07/11 09:00:07;;;;;;;7.47;1.83;;;27.80;49.10;;;;;;5059865;28;20081;-82
2023/07/11 09:02:55;;;;;;;6.25;1.65;;;28.00;49.80;;;;;;5045295;28;20048;-81
2023/07/11 09:05:35;;;;;;;2.45;1.42;;;28.00;48.00;;;;;;5048420;28;20041;-81
2023/07/11 09:08:03;;;;;;;5.53;1.75;;;28.00;50.80;;;;;;5033017;28;20061;-81
2023/07/11 09:10:46;;;;;;;5.82;1.70;;;28.10;49.90;;;;;;5037787;28;20769;-81
2023/07/11 09:13:46;;;;;;;5.72;1.80;;;28.10;48.00;;;;;;5051712;28;20053;-79
2023/07/11 09:16:36;;;;;;;6.97;2.05;;;28.20;47.60;;;;;;5054742;28;20463;-84
2023/07/11 09:19:30;;;;;;;9.18;1.77;;;28.40;49.10;;;;;;5032299;28;20137;-83
2023/07/11 09:22:28;;;;;;;3.90;1.65;;;28.50;49.50;;;;;;5068045;28;20044;-84
2023/07/11 09:25:16;;;;;;;4.65;1.70;;;28.80;49.40;;;;;;5055472;28;20049;-84
2023/07/11 09:28:00;;;;;;;7.15;2.63;;;29.10;47.90;;;;;;5060983;28;20076;-84
2023/07/11 09:30:45;;;;;;;6.13;2.20;;;29.20;47.70;;;;;;5058226;28;20076;-84
2023/07/11 09:33:20;;;;;;;7.45;1.60;;;29.40;47.30;;;;;;5033775;28;20045;-83
2023/07/11 09:35:50;;;;;;;3.40;1.60;;;29.50;48.20;;;;;;5048579;28;20084;-83
2023/07/11 09:38:48;;;;;;;4.05;1.80;;;29.70;47.50;;;;;;5050803;28;20057;-83
2023/07/11 09:41:23;;;;;;;3.20;1.40;;;29.90;46.60;;;;;;5050745;28;20049;-84
2023/07/11 09:43:57;;;;;;;5.35;1.48;;;29.90;45.20;;;;;;5052093;28;20048;-83
2023/07/11 09:46:25;;;;;;;7.65;1.83;;;29.90;46.70;;;;;;5051644;28;20194;-85
2023/07/11 09:48:59;;;;;;;3.83;1.58;;;30.00;45.80;;;;;;5051237;28;20060;-84
2023/07/11 09:51:28;;;;;;;5.20;1.60;;;30.10;44.60;;;;;;5062179;28;20091;-83
2023/07/11 09:53:56;;;;;;;11.50;1.80;;;30.20;46.00;;;;;;5051225;28;20048;-84
2023/07/11 09:56:25;;;;;;;12.23;1.88;;;30.50;43.80;;;;;;5033750;28;20131;-83
2023/07/11 09:58:53;;;;;;;4.60;1.63;;;30.50;44.20;;;;;;5048471;28;20041;-82
2023/07/11 10:01:26;;;;;;;6.75;1.58;;;30.50;42.80;;;;;;5051874;28;21272;-83
2023/07/11 10:03:55;;;;;;;8.07;2.28;;;30.40;44.50;;;;;;5051783;28;20053;-83
2023/07/11 10:06:30;;;;;;;6.20;1.70;;;30.40;43.50;;;;;;5034134;28;20044;-82
2023/07/11 10:09:17;;;;;;;9.05;1.75;;;30.30;44.00;;;;;;5049516;28;20053;-83
2023/07/11 10:12:12;;;;;;;4.25;1.80;;;30.50;44.00;;;;;;5051705;28;20061;-83
2023/07/11 10:14:41;;;;;;;7.40;1.60;;;30.80;43.60;;;;;;5045660;28;20102;-82
2023/07/11 10:17:23;;;;;;;10.07;1.73;;;31.00;43.00;;;;;;5051187;28;20479;-82
2023/07/11 10:19:55;;;;;;;5.00;1.67;;;30.90;42.70;;;;;;5051261;28;20049;-83
2023/07/11 10:22:36;;;;;;;4.00;1.50;;;31.10;42.90;;;;;;5051011;28;20114;-82
2023/07/11 10:25:15;;;;;;;2.58;1.48;;;31.30;41.50;;;;;;5049782;28;20071;-83
2023/07/11 10:27:46;;;;;;;4.25;1.42;;;31.50;41.90;;;;;;5054506;28;20828;-82
2023/07/11 10:30:21;;;;;;;4.57;1.80;;;31.60;40.20;;;;;;5037612;28;20052;-82
2023/07/11 10:32:56;;;;;;;;;;;31.60;42.50;;;;;;5051710;28;20130;-82
2023/07/11 10:35:36;;;;;;;8.13;1.80;;;31.70;39.90;;;;;;5038717;28;19925;-82
2023/07/11 10:38:20;;;;;;;3.67;1.30;;;31.80;40.60;;;;;;5050353;28;20057;-82
2023/07/11 10:40:51;;;;;;;3.83;1.50;;;31.80;40.30;;;;;;5033011;28;20165;-82
2023/07/11 10:43:35;;;;;;;4.65;1.73;;;31.60;39.90;;;;;;5065996;28;20746;-82
2023/07/11 10:46:09;;;;;;;4.03;1.50;;;31.80;39.50;;;;;;5049994;28;20462;-83
2023/07/11 10:48:46;;;;;;;3.72;1.60;;;31.90;40.50;;;;;;5050777;28;20468;-85
2023/07/11 10:51:23;;;;;;;5.82;1.30;;;32.00;41.10;;;;;;5064116;28;20071;-83
2023/07/11 10:54:22;;;;;;;4.65;1.30;;;32.00;41.00;;;;;;5051061;28;20060;-82
2023/07/11 10:56:56;;;;;;;6.55;1.60;;;32.00;40.40;;;;;;5030579;28;20136;-83
2023/07/11 10:59:27;;;;;;;3.42;1.20;;;32.00;40.00;;;;;;5031686;28;20115;-83
2023/07/11 11:02:15;;;;;;;6.45;1.48;;;31.90;39.30;;;;;;5050985;28;20045;-83
2023/07/11 11:05:02;;;;;;;4.72;1.33;;;31.80;40.10;;;;;;5043830;28;20044;-86
2023/07/11 11:07:41;;;;;;;5.90;1.58;;;31.80;40.00;;;;;;5045317;28;20401;-89
2023/07/11 11:10:33;;;;;;;3.08;1.15;;;31.80;39.80;;;;;;5036104;28;20435;-86
2023/07/11 11:13:18;;;;;;;3.90;1.65;;;31.90;40.90;;;;;;5034392;28;20128;-85
2023/07/11 11:15:56;;;;;;;2.60;1.15;;;31.90;40.10;;;;;;5043320;28;20052;-85
2023/07/11 11:19:02;;;;;;;4.70;1.58;;;31.80;37.30;;;;;;5049357;28;20052;-83
2023/07/11 11:21:33;;;;;;;6.60;1.33;;;31.60;37.10;;;;;;5053000;28;20048;-83
2023/07/11 11:24:18;;;;;;;5.30;1.20;;;31.60;39.40;;;;;;5048605;28;20102;-78
2023/07/11 11:26:45;;;;;;;4.70;1.20;;;31.70;39.10;;;;;;5045394;28;20530;-77
2023/07/11 11:29:37;;;;;;;5.18;1.55;;;31.70;39.70;;;;;;5045427;28;20057;-78
2023/07/11 11:32:07;;;;;;;4.70;1.55;;;31.60;39.20;;;;;;5056739;28;20068;-80
2023/07/11 11:34:56;;;;;;;7.10;1.45;;;31.70;38.10;;;;;;5028201;28;20041;-80
2023/07/11 11:38:04;;;;;;;7.00;1.45;;;31.70;38.10;;;;;;5048459;28;20616;-80
2023/07/11 11:40:37;;;;;;;3.90;1.90;;;31.70;38.90;;;;;;5045879;28;20041;-80
2023/07/11 11:43:10;;;;;;;2.70;1.00;;;31.70;39.00;;;;;;5029435;28;20045;-78
2023/07/11 11:45:41;;;;;;;12.00;1.58;;;31.40;36.50;;;;;;5027187;28;20045;-79
2023/07/11 11:48:26;;;;;;;2.15;1.40;;;31.30;38.90;;;;;;5029672;28;20053;-79
2023/07/11 11:50:57;;;;;;;3.17;1.42;;;31.50;38.40;;;;;;5028701;28;20056;-83
2023/07/11 11:53:46;;;;;;;3.90;1.20;;;31.40;38.10;;;;;;5046296;28;20501;-83
2023/07/11 11:56:19;;;;;;;3.10;1.33;;;31.50;37.80;;;;;;5047923;28;20040;-81
2023/07/11 11:58:56;;;;;;;3.55;1.02;;;31.60;40.30;;;;;;5043928;28;20049;-82
2023/07/11 12:01:52;;;;;;;35.28;5.65;;;31.80;39.20;;;;;;5044442;28;21227;-85
2023/07/11 12:04:29;;;;;;;8.52;3.00;;;31.80;37.80;;;;;;5063469;28;20045;-84
2023/07/11 12:07:02;;;;;;;6.43;1.38;;;31.80;39.10;;;;;;5064678;28;20048;-79
2023/07/11 12:09:46;;;;;;;4.28;1.58;;;31.60;38.50;;;;;;5063482;28;20104;-79
2023/07/11 12:12:21;;;;;;;4.18;1.80;;;31.40;38.80;;;;;;5048742;28;20790;-79
2023/07/11 12:14:51;;;;;;;5.32;1.35;;;31.40;39.50;;;;;;5038482;28;20052;-81
2023/07/11 12:17:34;;;;;;;2.42;1.23;;;31.30;40.50;;;;;;5042424;28;20053;-81
2023/07/11 12:20:05;;;;;;;3.05;1.80;;;31.40;39.50;;;;;;5030319;28;20041;-81
2023/07/11 12:22:38;;;;;;;5.85;1.48;;;31.40;38.50;;;;;;5061337;28;20057;-79
2023/07/11 12:25:23;;;;;;;7.13;1.70;;;31.50;40.80;;;;;;5044031;28;20056;-79
2023/07/11 12:27:53;;;;;;;3.65;1.75;;;31.60;40.50;;;;;;5045983;28;20143;-80
2023/07/11 12:30:26;;;;;;;4.75;1.23;;;31.80;40.30;;;;;;5031381;28;20060;-78
2023/07/11 12:32:55;;;;;;;5.30;1.63;;;31.90;39.60;;;;;;5043227;28;20146;-77
2023/07/11 12:35:24;;;;;;;8.75;1.98;;;32.00;40.80;;;;;;5041768;28;20047;-77
2023/07/11 12:38:00;;;;;;;9.30;1.30;;;32.20;38.70;;;;;;5039343;28;20095;-77
2023/07/11 12:40:36;;;;;;;3.53;1.20;;;32.30;39.80;;;;;;5043560;28;20052;-77
2023/07/11 12:43:16;;;;;;;4.10;1.00;;;32.40;37.90;;;;;;5043151;28;20534;-77
2023/07/11 12:45:49;;;;;;;4.05;1.30;;;32.60;37.90;;;;;;5045779;28;20045;-78
2023/07/11 12:48:32;;;;;;;5.60;1.58;;;32.60;39.50;;;;;;5046122;28;20041;-78
2023/07/11 12:51:21;;;;;;;6.22;1.85;;;32.70;37.80;;;;;;5036401;28;20052;-77
2023/07/11 12:53:51;;;;;;;5.78;1.10;;;32.80;38.30;;;;;;5031288;28;20055;-78
2023/07/11 12:56:19;;;;;;;2.47;1.38;;;32.80;36.70;;;;;;5046157;28;20040;-76
2023/07/11 12:58:46;;;;;;;4.00;1.30;;;32.80;38.70;;;;;;5030830;28;20049;-77
2023/07/11 13:01:15;;;;;;;3.40;1.45;;;32.80;37.50;;;;;;5046800;28;20067;-78
2023/07/11 13:03:43;;;;;;;7.50;1.77;;;32.80;37.20;;;;;;5036743;28;20941;-77
2023/07/11 13:06:32;;;;;;;2.78;1.40;;;32.70;37.40;;;;;;5033254;28;20085;-78
2023/07/11 13:08:59;;;;;;;5.65;1.38;;;32.60;36.90;;;;;;5050016;28;20133;-77
2023/07/11 13:11:28;;;;;;;5.20;1.58;;;32.60;38.50;;;;;;5044759;28;20088;-78